createdAt,value
2018-10-02T00:02:27.379Z,100908.89
2018-10-02T00:04:55.815Z,100910.00
2018-10-02T00:07:24.330Z,100908.63
2018-10-02T00:09:52.968Z,100910.66
2018-10-02T00:12:26.470Z,100910.64
2018-10-02T00:14:54.941Z,100908.47
2018-10-02T00:17:23.358Z,100913.99
2018-10-02T00:19:51.803Z,100913.20
2018-10-02T00:22:20.457Z,100910.98
2018-10-02T00:24:48.870Z,100918.14
2018-10-02T00:27:17.258Z,100911.20
2018-10-02T00:29:45.711Z,100919.16
2018-10-02T00:32:14.289Z,100917.92
2018-10-02T00:34:42.703Z,100919.63
2018-10-02T00:37:11.423Z,100918.34
2018-10-02T00:39:39.932Z,100930.20
2018-10-02T00:42:08.686Z,100928.08
2018-10-02T00:44:37.124Z,100920.20
2018-10-02T00:47:05.570Z,100922.84
2018-10-02T00:49:34.147Z,100926.48
2018-10-02T00:52:02.787Z,100929.19
2018-10-02T00:54:31.202Z,100922.14
2018-10-02T00:56:59.690Z,100925.25
2018-10-02T00:59:28.203Z,100922.19
2018-10-02T01:01:56.716Z,100923.95
2018-10-02T01:04:25.288Z,100913.42
2018-10-02T01:06:53.714Z,100917.34
2018-10-02T01:09:22.127Z,100904.17
2018-10-02T01:11:50.551Z,100915.17
2018-10-02T01:14:19.171Z,100904.98
2018-10-02T01:16:47.654Z,100907.17
2018-10-02T01:19:16.251Z,100901.00
2018-10-02T01:21:44.770Z,100904.41
2018-10-02T01:24:13.247Z,100902.69
2018-10-02T01:26:41.655Z,100900.45
2018-10-02T01:29:10.162Z,100909.20
2018-10-02T01:31:38.622Z,100901.13
2018-10-02T01:34:07.423Z,100898.04
2018-10-02T01:36:36.091Z,100901.34
2018-10-02T01:39:05.961Z,100893.00
2018-10-02T01:41:34.458Z,100894.73
2018-10-02T01:44:02.959Z,100897.89
2018-10-02T01:46:31.368Z,100896.56
2018-10-02T01:48:59.831Z,100890.81
2018-10-02T01:51:28.347Z,100894.30
2018-10-02T01:53:56.905Z,100888.03
2018-10-02T01:56:25.394Z,100888.57
2018-10-02T01:58:54.059Z,100882.76
2018-10-02T02:01:22.467Z,100879.89
2018-10-02T02:03:50.876Z,100883.39
2018-10-02T02:06:19.436Z,100889.46
2018-10-02T02:08:47.818Z,100892.20
2018-10-02T02:11:16.258Z,100899.30
2018-10-02T02:13:44.687Z,100898.39
2018-10-02T02:16:13.119Z,100901.59
2018-10-02T02:18:41.622Z,100899.90
2018-10-02T02:21:10.200Z,100900.12
2018-10-02T02:23:38.602Z,100903.57
2018-10-02T02:26:07.043Z,100908.20
2018-10-02T02:28:35.562Z,100902.27
2018-10-02T02:31:04.059Z,100907.60
2018-10-02T02:33:32.479Z,100907.26
2018-10-02T02:36:01.156Z,100904.70
2018-10-02T02:38:29.683Z,100903.29
2018-10-02T02:40:58.078Z,100899.80
2018-10-02T02:43:26.583Z,100901.91
2018-10-02T02:45:55.051Z,100904.98
2018-10-02T02:48:28.587Z,100908.90
2018-10-02T02:51:02.027Z,100907.47
2018-10-02T02:53:30.830Z,100904.83
2018-10-02T02:55:59.291Z,100902.70
2018-10-02T02:58:27.773Z,100904.67
2018-10-02T03:00:56.343Z,100897.77
2018-10-02T03:03:24.790Z,100896.23
2018-10-02T03:05:53.364Z,100905.45
2018-10-02T03:08:21.903Z,100901.09
2018-10-02T03:10:50.368Z,100901.67
2018-10-02T03:13:18.863Z,100901.94
2018-10-02T03:15:47.478Z,100898.86
2018-10-02T03:18:16.182Z,100895.21
2018-10-02T03:20:44.767Z,100893.44
2018-10-02T03:23:13.277Z,100892.67
2018-10-02T03:25:41.886Z,100890.24
2018-10-02T03:28:10.399Z,100883.39
2018-10-02T03:30:39.103Z,100886.89
2018-10-02T03:33:08.032Z,100886.62
2018-10-02T03:35:36.643Z,100880.80
2018-10-02T03:38:05.275Z,100885.17
2018-10-02T03:40:33.719Z,100885.70
2018-10-02T03:43:02.183Z,100887.16
2018-10-02T03:45:30.622Z,100883.49
2018-10-02T03:47:59.103Z,100880.98
2018-10-02T03:50:27.621Z,100887.98
2018-10-02T03:52:56.143Z,100881.36
2018-10-02T03:55:24.562Z,100873.89
2018-10-02T03:57:53.100Z,100873.77
2018-10-02T04:00:21.612Z,100864.66
2018-10-02T04:02:50.167Z,100864.72
2018-10-02T04:05:18.774Z,100867.86
2018-10-02T04:07:47.424Z,100870.97
2018-10-02T04:10:15.928Z,100861.34
2018-10-02T04:12:44.429Z,100868.88
2018-10-02T04:15:13.043Z,100867.21
2018-10-02T04:17:41.432Z,100874.31
2018-10-02T04:20:09.935Z,100870.41
2018-10-02T04:22:38.415Z,100867.72
2018-10-02T04:25:07.098Z,100860.20
2018-10-02T04:27:35.602Z,100860.15
2018-10-02T04:30:04.369Z,100854.41
2018-10-02T04:32:32.779Z,100852.20
2018-10-02T04:35:01.274Z,100853.27
2018-10-02T04:37:30.055Z,100853.37
2018-10-02T04:39:58.463Z,100858.39
2018-10-02T04:42:26.981Z,100868.00
2018-10-02T04:44:55.843Z,100865.89
2018-10-02T04:47:24.278Z,100860.23
2018-10-02T04:49:52.861Z,100856.74
2018-10-02T04:52:21.556Z,100856.30
2018-10-02T04:54:50.086Z,100858.94
2018-10-02T04:57:18.498Z,100847.83
2018-10-02T04:59:47.124Z,100840.03
2018-10-02T05:02:15.599Z,100842.84
2018-10-02T05:04:43.994Z,100844.06
2018-10-02T05:07:12.403Z,100849.77
2018-10-02T05:09:40.918Z,100842.73
2018-10-02T05:12:09.400Z,100847.36
2018-10-02T05:14:38.196Z,100852.05
2018-10-02T05:17:06.591Z,100851.69
2018-10-02T05:19:34.998Z,100836.77
2018-10-02T05:22:04.432Z,100828.78
2018-10-02T05:24:33.355Z,100837.11
2018-10-02T05:27:01.800Z,100831.80
2018-10-02T05:29:30.515Z,100843.63
2018-10-02T05:31:59.008Z,100841.84
2018-10-02T05:34:27.539Z,100842.82
2018-10-02T05:36:56.163Z,100835.80
2018-10-02T05:39:25.086Z,100832.70
2018-10-02T05:41:53.739Z,100828.73
2018-10-02T05:44:22.459Z,100829.09
2018-10-02T05:46:50.891Z,100825.09
2018-10-02T05:49:19.404Z,100830.79
2018-10-02T05:51:48.251Z,100831.25
2018-10-02T05:54:16.701Z,100836.05
2018-10-02T05:56:45.111Z,100842.03
2018-10-02T05:59:13.866Z,100843.35
2018-10-02T06:01:42.419Z,100843.84
2018-10-02T06:04:10.851Z,100849.12
2018-10-02T06:06:39.647Z,100863.42
2018-10-02T06:09:10.862Z,100863.31
2018-10-02T06:11:39.488Z,100858.44
2018-10-02T06:14:08.444Z,100857.44
2018-10-02T06:16:36.999Z,100847.69
2018-10-02T06:19:05.543Z,100844.06
2018-10-02T06:21:34.007Z,100838.78
2018-10-02T06:24:02.487Z,100840.55
2018-10-02T06:26:31.046Z,100842.84
2018-10-02T06:28:59.624Z,100836.72
2018-10-02T06:31:28.208Z,100843.44
2018-10-02T06:33:56.733Z,100843.08
2018-10-02T06:36:25.172Z,100844.98
2018-10-02T06:38:53.720Z,100847.44
2018-10-02T06:41:22.453Z,100842.13
2018-10-02T06:43:51.013Z,100844.78
2018-10-02T06:46:19.612Z,100847.44
2018-10-02T06:48:48.187Z,100842.84
2018-10-02T06:51:16.815Z,100848.59
2018-10-02T06:53:45.416Z,100853.94
2018-10-02T06:56:14.228Z,100861.19
2018-10-02T06:58:42.940Z,100864.98
2018-10-02T07:01:11.456Z,100866.77
2018-10-02T07:03:40.120Z,100868.41
2018-10-02T07:06:08.670Z,100864.29
2018-10-02T07:08:37.259Z,100865.54
2018-10-02T07:11:05.840Z,100859.97
2018-10-02T07:13:34.333Z,100852.06
2018-10-02T07:16:02.960Z,100849.62
2018-10-02T07:18:31.687Z,100841.29
2018-10-02T07:21:00.300Z,100838.44
2018-10-02T07:23:28.828Z,100851.58
2018-10-02T07:25:57.368Z,100843.61
2018-10-02T07:28:25.904Z,100839.23
2018-10-02T07:30:54.525Z,100845.97
2018-10-02T07:33:22.999Z,100839.66
2018-10-02T07:35:51.468Z,100843.94
2018-10-02T07:38:20.156Z,100851.98
2018-10-02T07:40:48.958Z,100849.67
2018-10-02T07:43:17.472Z,100851.03
2018-10-02T07:45:46.000Z,100843.78
2018-10-02T07:48:14.762Z,100834.94
2018-10-02T07:50:43.355Z,100838.33
2018-10-02T07:53:11.876Z,100841.64
2018-10-02T07:55:40.598Z,100837.69
2018-10-02T07:58:09.061Z,100832.70
2018-10-02T08:00:37.588Z,100833.38
2018-10-02T08:03:06.157Z,100826.81
2018-10-02T08:05:34.669Z,100827.91
2018-10-02T08:08:03.154Z,100826.38
2018-10-02T08:10:31.840Z,100824.73
2018-10-02T08:13:00.348Z,100818.01
2018-10-02T08:15:28.980Z,100825.34
2018-10-02T08:17:57.989Z,100821.33
2018-10-02T08:20:26.661Z,100828.92
2018-10-02T08:22:55.432Z,100838.60
2018-10-02T08:25:24.092Z,100828.98
2018-10-02T08:27:52.576Z,100828.42
2018-10-02T08:30:21.080Z,100831.08
2018-10-02T08:32:49.739Z,100833.06
2018-10-02T08:35:18.293Z,100828.33
2018-10-02T08:37:46.753Z,100834.83
2018-10-02T08:40:15.368Z,100824.28
2018-10-02T08:42:43.892Z,100840.31
2018-10-02T08:45:12.337Z,100843.48
2018-10-02T08:47:41.125Z,100841.22
2018-10-02T08:50:09.780Z,100847.80
2018-10-02T08:52:38.428Z,100842.39
2018-10-02T08:55:07.132Z,100840.25
2018-10-02T08:57:35.705Z,100833.91
2018-10-02T09:00:04.292Z,100846.70
2018-10-02T09:02:33.045Z,100834.75
2018-10-02T09:05:01.555Z,100828.91
2018-10-02T09:07:30.077Z,100821.33
2018-10-02T09:09:58.712Z,100822.79
2018-10-02T09:12:27.274Z,100824.55
2018-10-02T09:14:55.844Z,100829.30
2018-10-02T09:17:24.680Z,100833.19
2018-10-02T09:19:53.284Z,100836.52
2018-10-02T09:22:24.901Z,100829.13
2018-10-02T09:24:54.237Z,100838.08
2018-10-02T09:27:22.714Z,100839.22
2018-10-02T09:29:56.512Z,100831.47
2018-10-02T09:32:30.185Z,100827.91
2018-10-02T09:35:03.947Z,100829.50
2018-10-02T09:37:37.823Z,100822.59
2018-10-02T09:40:11.746Z,100823.84
2018-10-02T09:42:45.469Z,100820.00
2018-10-02T09:45:14.086Z,100819.70
2018-10-02T09:47:42.757Z,100832.90
2018-10-02T09:50:11.418Z,100832.08
2018-10-02T09:52:40.063Z,100823.50
2018-10-02T09:55:08.521Z,100826.16
2018-10-02T09:57:37.017Z,100816.27
2018-10-02T10:00:05.934Z,100828.30
2018-10-02T10:02:36.173Z,100827.34
2018-10-02T10:05:04.797Z,100819.20
2018-10-02T10:07:38.369Z,100835.36
2018-10-02T10:10:07.401Z,100823.92
2018-10-02T10:12:35.897Z,100818.06
2018-10-02T10:15:04.476Z,100817.80
2018-10-02T10:17:32.956Z,100818.67
2018-10-02T10:20:01.564Z,100816.89
2018-10-02T10:22:30.314Z,100810.77
2018-10-02T10:24:58.849Z,100811.67
2018-10-02T10:27:27.525Z,100808.66
2018-10-02T10:29:56.040Z,100804.79
2018-10-02T10:32:24.520Z,100800.62
2018-10-02T10:34:53.210Z,100793.66
2018-10-02T10:37:21.912Z,100794.92
2018-10-02T10:39:50.442Z,100804.08
2018-10-02T10:42:19.068Z,100806.91
2018-10-02T10:44:48.070Z,100800.23
2018-10-02T10:47:18.692Z,100809.14
2018-10-02T10:49:47.277Z,100797.55
2018-10-02T10:52:15.940Z,100795.00
2018-10-02T10:54:54.747Z,100794.31
2018-10-02T10:57:23.197Z,100788.27
2018-10-02T10:59:51.728Z,100777.08
2018-10-02T11:02:20.302Z,100774.25
2018-10-02T11:04:48.898Z,100773.69
2018-10-02T11:07:17.528Z,100769.74
2018-10-02T11:09:46.340Z,100768.17
2018-10-02T11:12:14.968Z,100759.11
2018-10-02T11:14:43.477Z,100757.99
2018-10-02T11:17:12.256Z,100754.36
2018-10-02T11:19:40.828Z,100744.28
2018-10-02T11:22:16.876Z,100752.50
2018-10-02T11:24:54.507Z,100755.63
2018-10-02T11:27:23.064Z,100759.08
2018-10-02T11:29:51.521Z,100758.97
2018-10-02T11:32:20.020Z,100756.95
2018-10-02T11:34:48.589Z,100759.14
2018-10-02T11:37:17.080Z,100761.95
2018-10-02T11:39:45.825Z,100753.76
2018-10-02T11:42:14.387Z,100757.83
2018-10-02T11:44:43.260Z,100753.55
2018-10-02T11:47:15.501Z,100759.11
2018-10-02T11:49:45.042Z,100754.11
2018-10-02T11:52:13.512Z,100746.11
2018-10-02T11:54:42.040Z,100746.80
2018-10-02T11:57:10.517Z,100743.27
2018-10-02T11:59:39.089Z,100744.70
2018-10-02T12:02:08.007Z,100743.73
2018-10-02T12:04:36.484Z,100729.33
2018-10-02T12:07:05.121Z,100719.58
2018-10-02T12:09:33.676Z,100718.95
2018-10-02T12:12:02.219Z,100707.77
2018-10-02T12:14:30.928Z,100700.29
2018-10-02T12:16:59.225Z,100699.71
2018-10-02T12:19:27.883Z,100700.02
2018-10-02T12:21:56.534Z,100702.11
2018-10-02T12:24:25.337Z,100708.19
2018-10-02T12:26:53.848Z,100709.06
2018-10-02T12:29:22.348Z,100713.20
2018-10-02T12:31:50.916Z,100708.63
2018-10-02T12:34:19.504Z,100697.97
2018-10-02T12:36:48.017Z,100701.73
2018-10-02T12:39:16.854Z,100701.16
2018-10-02T12:41:47.416Z,100702.22
2018-10-02T12:44:16.052Z,100704.87
2018-10-02T12:46:44.549Z,100714.34
2018-10-02T12:49:13.232Z,100706.52
2018-10-02T12:51:41.806Z,100708.98
2018-10-02T12:54:10.264Z,100711.98
2018-10-02T12:56:38.908Z,100705.90
2018-10-02T12:59:07.502Z,100706.28
2018-10-02T13:01:35.996Z,100704.42
2018-10-02T13:04:04.493Z,100699.19
2018-10-02T13:06:32.964Z,100693.42
2018-10-02T13:09:01.544Z,100687.34
2018-10-02T13:11:30.121Z,100689.08
2018-10-02T13:14:04.790Z,100685.17
2018-10-02T13:16:33.514Z,100686.23
2018-10-02T13:19:01.972Z,100687.86
2018-10-02T13:21:30.488Z,100686.62
2018-10-02T13:23:58.969Z,100680.05
2018-10-02T13:26:27.648Z,100683.27
2018-10-02T13:28:56.216Z,100683.28
2018-10-02T13:31:24.744Z,100675.15
2018-10-02T13:33:53.608Z,100674.75
2018-10-02T13:36:22.091Z,100669.63
2018-10-02T13:38:50.854Z,100674.53
2018-10-02T13:41:19.388Z,100664.91
2018-10-02T13:43:48.004Z,100659.77
2018-10-02T13:46:16.652Z,100649.86
2018-10-02T13:48:45.125Z,100645.04
2018-10-02T13:51:13.669Z,100637.81
2018-10-02T13:53:42.260Z,100647.23
2018-10-02T13:56:10.821Z,100637.27
2018-10-02T13:58:39.476Z,100626.72
2018-10-02T14:01:07.963Z,100631.20
2018-10-02T14:03:36.536Z,100627.34
2018-10-02T14:06:04.988Z,100631.28
2018-10-02T14:08:33.629Z,100631.11
2018-10-02T14:11:02.433Z,100636.14
2018-10-02T14:13:31.044Z,100633.28
2018-10-02T14:16:00.038Z,100625.62
2018-10-02T14:18:28.917Z,100638.27
2018-10-02T14:20:57.570Z,100641.22
2018-10-02T14:23:26.104Z,100643.89
2018-10-02T14:25:54.528Z,100648.10
2018-10-02T14:28:23.154Z,100655.97
2018-10-02T14:30:51.664Z,100656.45
2018-10-02T14:33:20.341Z,100652.06
2018-10-02T14:35:48.872Z,100650.61
2018-10-02T14:38:17.368Z,100651.52
2018-10-02T14:40:46.076Z,100653.72
2018-10-02T14:43:14.658Z,100656.75
2018-10-02T14:45:43.605Z,100654.47
2018-10-02T14:48:12.073Z,100652.98
2018-10-02T14:50:40.663Z,100649.45
2018-10-02T14:53:09.304Z,100648.77
2018-10-02T14:55:38.089Z,100644.57
2018-10-02T14:58:06.980Z,100647.88
2018-10-02T15:00:36.120Z,100652.14
2018-10-02T15:03:04.616Z,100645.25
2018-10-02T15:05:33.225Z,100652.98
2018-10-02T15:08:01.836Z,100648.69
2018-10-02T15:10:30.523Z,100647.33
2018-10-02T15:12:59.168Z,100643.09
2018-10-02T15:15:27.788Z,100645.61
2018-10-02T15:17:56.327Z,100640.37
2018-10-02T15:20:24.928Z,100629.89
2018-10-02T15:22:53.522Z,100631.27
2018-10-02T15:25:22.164Z,100624.38
2018-10-02T15:27:50.783Z,100623.47
2018-10-02T15:30:19.365Z,100621.59
2018-10-02T15:32:48.575Z,100627.91
2018-10-02T15:35:17.064Z,100628.98
2018-10-02T15:37:45.633Z,100634.80
2018-10-02T15:40:14.012Z,100627.33
2018-10-02T15:42:43.037Z,100636.28
2018-10-02T15:45:11.844Z,100627.78
2018-10-02T15:47:40.454Z,100629.66
2018-10-02T15:50:08.961Z,100625.86
2018-10-02T15:52:37.584Z,100627.31
2018-10-02T15:55:06.128Z,100616.53
2018-10-02T15:57:34.990Z,100627.97
2018-10-02T16:00:03.500Z,100622.05
2018-10-02T16:02:32.007Z,100611.54
2018-10-02T16:05:02.029Z,100617.92
2018-10-02T16:19:13.641Z,100629.20
2018-10-02T16:21:42.264Z,100630.53
2018-10-02T16:24:10.808Z,100637.66
2018-10-02T16:26:39.816Z,100629.25
2018-10-02T16:29:08.436Z,100623.73
2018-10-02T16:31:37.021Z,100631.87
2018-10-02T16:34:06.285Z,100632.97
2018-10-02T16:36:35.310Z,100638.52
2018-10-02T16:39:04.941Z,100641.19
2018-10-02T16:41:34.260Z,100643.36
2018-10-02T16:44:02.857Z,100638.29
2018-10-02T16:46:31.404Z,100638.77
2018-10-02T16:49:00.410Z,100644.57
2018-10-02T16:51:28.944Z,100644.66
2018-10-02T16:53:57.987Z,100632.81
2018-10-02T16:56:26.862Z,100636.11
2018-10-02T16:58:55.453Z,100638.84
2018-10-02T17:01:24.277Z,100633.18
2018-10-02T17:03:57.722Z,100622.54
2018-10-02T17:06:26.328Z,100627.64
2018-10-02T17:08:54.972Z,100645.20
2018-10-02T17:11:23.632Z,100640.97
2018-10-02T17:13:52.333Z,100638.30
2018-10-02T17:16:20.972Z,100633.33
2018-10-02T17:18:49.760Z,100638.50
2018-10-02T17:21:18.364Z,100638.64
2018-10-02T17:23:46.993Z,100638.89
2018-10-02T17:26:15.617Z,100640.47
2018-10-02T17:28:44.208Z,100654.84
2018-10-02T17:31:12.888Z,100661.00
2018-10-02T17:33:41.557Z,100659.75
2018-10-02T17:36:10.224Z,100666.53
2018-10-02T17:38:39.529Z,100677.45
2018-10-02T17:41:08.339Z,100674.22
2018-10-02T17:43:38.225Z,100687.10
2018-10-02T17:46:07.020Z,100689.27
2018-10-02T17:48:35.692Z,100686.31
2018-10-02T17:51:04.409Z,100687.81
2018-10-02T17:53:33.049Z,100690.06
2018-10-02T17:56:01.747Z,100692.67
2018-10-02T17:58:30.416Z,100698.95
2018-10-02T18:00:58.934Z,100699.78
2018-10-02T18:03:27.597Z,100695.45
2018-10-02T18:05:56.162Z,100691.17
2018-10-02T18:08:24.832Z,100694.70
2018-10-02T18:10:53.468Z,100692.95
2018-10-02T18:13:22.013Z,100703.31
2018-10-02T18:15:50.843Z,100686.31
2018-10-02T18:18:19.540Z,100697.49
2018-10-02T18:20:48.265Z,100699.36
2018-10-02T18:23:16.983Z,100697.45
2018-10-02T18:25:45.890Z,100702.23
2018-10-02T18:28:14.469Z,100695.16
2018-10-02T18:30:43.073Z,100703.80
2018-10-02T18:33:11.885Z,100709.05
2018-10-02T18:35:40.592Z,100705.97
2018-10-02T18:38:09.337Z,100716.45
2018-10-02T18:40:38.135Z,100712.05
2018-10-02T18:43:06.920Z,100719.78
2018-10-02T18:45:35.563Z,100719.41
2018-10-02T18:48:04.309Z,100725.10
2018-10-02T18:50:32.889Z,100729.38
2018-10-02T18:53:02.029Z,100735.00
2018-10-02T18:55:30.633Z,100726.42
2018-10-02T18:57:59.182Z,100725.77
2018-10-02T19:00:27.756Z,100724.93
2018-10-02T19:02:56.486Z,100731.05
2018-10-02T19:05:25.120Z,100725.47
2018-10-02T19:07:54.060Z,100727.47
2018-10-02T19:10:23.120Z,100723.98
2018-10-02T19:12:52.122Z,100724.18
2018-10-02T19:15:21.478Z,100721.06
2018-10-02T19:17:50.358Z,100717.12
2018-10-02T19:20:24.134Z,100716.24
2018-10-02T19:22:53.658Z,100718.41
2018-10-02T19:25:27.661Z,100718.03
2018-10-02T19:27:57.070Z,100719.94
2018-10-02T19:30:31.301Z,100725.73
2018-10-02T19:33:00.739Z,100732.82
2018-10-02T19:35:29.959Z,100735.58
2018-10-02T19:38:03.995Z,100739.69
2018-10-02T19:40:32.947Z,100740.69
2018-10-02T19:43:02.041Z,100744.84
2018-10-02T19:45:36.377Z,100747.92
2018-10-02T19:48:07.743Z,100761.94
2018-10-02T19:50:38.834Z,100752.13
2018-10-02T19:53:07.899Z,100752.95
2018-10-02T19:55:36.767Z,100744.77
2018-10-02T19:58:05.785Z,100743.69
2018-10-02T20:00:34.683Z,100751.59
2018-10-02T20:03:03.872Z,100750.03
2018-10-02T20:05:32.447Z,100738.36
2018-10-02T20:08:02.753Z,100732.91
2018-10-02T20:10:31.457Z,100737.53
2018-10-02T20:13:00.611Z,100733.04
2018-10-02T20:15:29.743Z,100738.47
2018-10-02T20:17:58.631Z,100734.48
2018-10-02T20:20:27.188Z,100731.06
2018-10-02T20:22:55.800Z,100731.06
2018-10-02T20:25:24.403Z,100736.41
2018-10-02T20:27:53.078Z,100741.02
2018-10-02T20:30:21.666Z,100726.22
2018-10-02T20:32:50.295Z,100731.16
2018-10-02T20:35:19.000Z,100741.23
2018-10-02T20:37:47.540Z,100742.73
2018-10-02T20:40:16.234Z,100748.00
2018-10-02T20:42:44.792Z,100758.23
2018-10-02T20:45:13.460Z,100751.50
2018-10-02T20:47:42.078Z,100751.59
2018-10-02T20:50:10.628Z,100741.75
2018-10-02T20:52:39.357Z,100738.28
2018-10-02T20:55:08.097Z,100728.77
2018-10-02T20:57:36.754Z,100721.56
2018-10-02T21:00:05.830Z,100728.30
2018-10-02T21:02:34.524Z,100732.13
2018-10-02T21:05:03.116Z,100734.82
2018-10-02T21:07:31.641Z,100744.51
2018-10-02T21:10:00.419Z,100741.52
2018-10-02T21:12:28.952Z,100733.16
2018-10-02T21:14:57.497Z,100740.19
2018-10-02T21:17:26.091Z,100746.34
2018-10-02T21:19:54.766Z,100739.45
2018-10-02T21:22:23.366Z,100732.83
2018-10-02T21:24:52.189Z,100728.47
2018-10-02T21:27:20.820Z,100730.62
2018-10-02T21:29:49.329Z,100738.20
2018-10-02T21:32:18.276Z,100733.99
2018-10-02T21:34:46.951Z,100724.48
2018-10-02T21:37:15.448Z,100727.72
2018-10-02T21:39:44.006Z,100730.05
2018-10-02T21:42:12.872Z,100730.00
2018-10-02T21:44:41.392Z,100725.39
2018-10-02T21:47:10.032Z,100716.49
2018-10-02T21:49:38.601Z,100719.27
2018-10-02T21:52:07.374Z,100712.84
2018-10-02T21:54:36.596Z,100720.27
2018-10-02T21:57:05.271Z,100724.05
2018-10-02T21:59:33.986Z,100727.55
2018-10-02T22:02:06.221Z,100733.79
2018-10-02T22:04:39.681Z,100731.83
2018-10-02T22:07:13.058Z,100732.66
2018-10-02T22:09:47.550Z,100740.31
2018-10-02T22:12:16.431Z,100748.09
2018-10-02T22:14:44.973Z,100748.75
2018-10-02T22:17:13.680Z,100743.14
2018-10-02T22:19:43.003Z,100746.52
2018-10-02T22:22:11.793Z,100726.23
2018-10-02T22:24:40.373Z,100721.39
2018-10-02T22:27:14.594Z,100714.26
2018-10-02T22:29:43.396Z,100722.22
2018-10-02T22:32:11.963Z,100726.08
2018-10-02T22:34:40.757Z,100724.01
2018-10-02T22:37:09.368Z,100726.86
2018-10-02T22:39:38.078Z,100728.64
2018-10-02T22:42:06.783Z,100732.68
2018-10-02T22:44:37.306Z,100716.52
2018-10-02T22:47:06.068Z,100709.05
2018-10-02T22:49:35.261Z,100703.29
2018-10-02T22:52:04.205Z,100704.35
2018-10-02T22:54:33.525Z,100696.83
2018-10-02T22:57:02.161Z,100691.81
2018-10-02T22:59:30.710Z,100691.22
2018-10-02T23:01:59.425Z,100685.39
2018-10-02T23:04:28.027Z,100696.36
2018-10-02T23:06:56.693Z,100702.00
2018-10-02T23:09:26.105Z,100702.50
2018-10-02T23:11:54.772Z,100697.72
2018-10-02T23:14:24.974Z,100704.97
2018-10-02T23:16:53.629Z,100688.55
2018-10-02T23:19:22.387Z,100692.77
2018-10-02T23:21:50.936Z,100703.16
2018-10-02T23:24:20.211Z,100704.75
2018-10-02T23:26:49.084Z,100701.55
2018-10-02T23:29:17.618Z,100707.09
2018-10-02T23:31:46.649Z,100719.67
2018-10-02T23:34:15.215Z,100719.67
2018-10-02T23:36:43.961Z,100730.27
2018-10-02T23:39:12.741Z,100722.70
2018-10-02T23:41:41.312Z,100721.16
2018-10-02T23:44:09.956Z,100725.51
2018-10-02T23:46:38.649Z,100726.53
2018-10-02T23:49:07.217Z,100718.39
2018-10-02T23:51:35.920Z,100718.46
2018-10-02T23:54:04.521Z,100724.50
2018-10-02T23:56:33.131Z,100724.83
2018-10-02T23:59:01.901Z,100729.96
